createdAt,value
2017-12-21T00:02:14.289Z,97169.94
2017-12-21T00:04:41.769Z,97171.64
2017-12-21T00:07:09.313Z,97175.89
2017-12-21T00:09:36.851Z,97170.64
2017-12-21T00:12:04.321Z,97170.92
2017-12-21T00:14:31.816Z,97163.38
2017-12-21T00:16:59.281Z,97145.93
2017-12-21T00:19:26.745Z,97144.52
2017-12-21T00:21:54.224Z,97146.69
2017-12-21T00:24:21.685Z,97142.02
2017-12-21T00:26:49.152Z,97128.38
2017-12-21T00:29:16.641Z,97134.71
2017-12-21T00:31:44.105Z,97148.77
2017-12-21T00:34:11.568Z,97155.95
2017-12-21T00:36:39.053Z,97143.57
2017-12-21T00:39:06.517Z,97139.33
2017-12-21T00:41:33.985Z,97148.55
2017-12-21T00:44:01.466Z,97156.38
2017-12-21T00:46:28.928Z,97164.42
2017-12-21T00:48:56.393Z,97159.38
2017-12-21T00:51:23.872Z,97152.78
2017-12-21T00:53:51.341Z,97151.95
2017-12-21T00:56:18.804Z,97147.75
2017-12-21T00:58:46.285Z,97154.50
2017-12-21T01:01:13.752Z,97162.65
2017-12-21T01:03:41.220Z,97164.45
2017-12-21T01:06:08.701Z,97159.05
2017-12-21T01:08:36.164Z,97155.74
2017-12-21T01:11:03.650Z,97161.19
2017-12-21T01:13:31.118Z,97162.36
2017-12-21T01:15:58.605Z,97165.03
2017-12-21T01:18:26.076Z,97157.96
2017-12-21T01:20:53.556Z,97161.70
2017-12-21T01:23:21.020Z,97162.09
2017-12-21T01:25:48.507Z,97168.56
2017-12-21T01:28:15.968Z,97161.11
2017-12-21T01:30:43.452Z,97160.69
2017-12-21T01:33:10.923Z,97171.92
2017-12-21T01:35:38.400Z,97177.69
2017-12-21T01:38:05.873Z,97174.77
2017-12-21T01:40:33.352Z,97181.17
2017-12-21T01:43:00.813Z,97177.00
2017-12-21T01:45:28.293Z,97168.91
2017-12-21T01:47:55.757Z,97170.24
2017-12-21T01:50:23.241Z,97172.11
2017-12-21T01:52:50.708Z,97171.75
2017-12-21T01:55:18.188Z,97163.20
2017-12-21T01:57:45.652Z,97152.77
2017-12-21T02:00:13.140Z,97153.64
2017-12-21T02:02:40.609Z,97157.92
2017-12-21T02:05:08.097Z,97155.35
2017-12-21T02:07:35.570Z,97154.52
2017-12-21T02:10:03.053Z,97147.28
2017-12-21T02:12:30.518Z,97159.84
2017-12-21T02:14:58.005Z,97174.50
2017-12-21T02:17:25.477Z,97175.75
2017-12-21T02:19:52.956Z,97165.30
2017-12-21T02:22:20.430Z,97164.06
2017-12-21T02:24:47.909Z,97168.75
2017-12-21T02:27:15.377Z,97177.89
2017-12-21T02:29:42.857Z,97189.59
2017-12-21T02:32:10.324Z,97189.61
2017-12-21T02:34:37.811Z,97197.12
2017-12-21T02:37:05.276Z,97195.38
2017-12-21T02:39:32.841Z,97184.99
2017-12-21T02:42:00.277Z,97195.89
2017-12-21T02:44:27.765Z,97190.05
2017-12-21T02:46:56.076Z,97190.41
2017-12-21T02:49:23.546Z,97192.12
2017-12-21T02:51:51.026Z,97191.30
2017-12-21T02:54:18.503Z,97185.08
2017-12-21T02:56:45.992Z,97181.34
2017-12-21T02:59:13.456Z,97181.72
2017-12-21T03:01:40.940Z,97181.72
2017-12-21T03:04:08.401Z,97173.16
2017-12-21T03:06:35.886Z,97167.64
2017-12-21T03:09:03.349Z,97160.80
2017-12-21T03:11:30.829Z,97164.63
2017-12-21T03:13:58.301Z,97152.36
2017-12-21T03:16:25.780Z,97137.23
2017-12-21T03:18:53.249Z,97148.47
2017-12-21T03:21:20.728Z,97159.03
2017-12-21T03:23:48.255Z,97157.92
2017-12-21T03:26:15.737Z,97166.56
2017-12-21T03:28:43.204Z,97166.56
2017-12-21T03:31:10.682Z,97168.32
2017-12-21T03:33:38.144Z,97168.80
2017-12-21T03:36:05.625Z,97166.89
2017-12-21T03:38:33.088Z,97162.20
2017-12-21T03:41:00.578Z,97146.84
2017-12-21T03:43:28.048Z,97148.58
2017-12-21T03:45:55.541Z,97139.72
2017-12-21T03:48:23.004Z,97140.03
2017-12-21T03:50:50.489Z,97132.56
2017-12-21T03:53:17.954Z,97140.00
2017-12-21T03:55:45.433Z,97141.89
2017-12-21T03:58:12.892Z,97150.19
2017-12-21T04:00:40.375Z,97146.56
2017-12-21T04:03:07.842Z,97152.02
2017-12-21T04:05:35.328Z,97151.16
2017-12-21T04:08:02.793Z,97154.96
2017-12-21T04:10:30.273Z,97151.45
2017-12-21T04:12:57.746Z,97152.28
2017-12-21T04:15:25.225Z,97157.73
2017-12-21T04:17:52.688Z,97166.11
2017-12-21T04:20:20.173Z,97169.05
2017-12-21T04:22:47.633Z,97159.79
2017-12-21T04:25:15.096Z,97168.58
2017-12-21T04:27:42.577Z,97170.53
2017-12-21T04:30:10.044Z,97165.10
2017-12-21T04:32:37.526Z,97160.47
2017-12-21T04:35:04.988Z,97173.39
2017-12-21T04:37:32.465Z,97172.06
2017-12-21T04:39:59.933Z,97174.47
2017-12-21T04:42:27.416Z,97174.70
2017-12-21T04:44:54.892Z,97176.13
2017-12-21T04:47:22.376Z,97183.55
2017-12-21T04:49:49.841Z,97187.18
2017-12-21T04:52:17.319Z,97192.58
2017-12-21T04:54:44.784Z,97195.57
2017-12-21T04:57:12.340Z,97190.90
2017-12-21T04:59:39.814Z,97194.68
2017-12-21T05:02:07.300Z,97184.55
2017-12-21T05:04:34.764Z,97177.52
2017-12-21T05:07:02.244Z,97170.56
2017-12-21T05:09:29.709Z,97171.34
2017-12-21T05:11:57.200Z,97176.31
2017-12-21T05:14:24.673Z,97174.77
2017-12-21T05:16:52.156Z,97182.10
2017-12-21T05:19:19.620Z,97179.52
2017-12-21T05:21:47.105Z,97177.30
2017-12-21T05:24:14.568Z,97188.31
2017-12-21T05:26:42.048Z,97192.07
2017-12-21T05:29:09.508Z,97197.20
2017-12-21T05:31:36.988Z,97204.26
2017-12-21T05:34:04.448Z,97201.98
2017-12-21T05:36:31.928Z,97193.67
2017-12-21T05:38:59.405Z,97187.34
2017-12-21T05:41:26.888Z,97181.95
2017-12-21T05:43:54.353Z,97176.95
2017-12-21T05:46:21.836Z,97183.09
2017-12-21T05:48:49.296Z,97181.34
2017-12-21T05:51:16.760Z,97190.45
2017-12-21T05:53:44.446Z,97195.94
2017-12-21T05:56:11.913Z,97197.53
2017-12-21T05:58:39.397Z,97190.09
2017-12-21T06:01:06.877Z,97195.15
2017-12-21T06:03:34.365Z,97200.50
2017-12-21T06:06:01.829Z,97202.69
2017-12-21T06:08:29.319Z,97199.11
2017-12-21T06:10:56.784Z,97202.42
2017-12-21T06:13:24.272Z,97206.89
2017-12-21T06:15:51.742Z,97204.40
2017-12-21T06:18:19.293Z,97199.06
2017-12-21T06:20:46.730Z,97197.28
2017-12-21T06:23:14.209Z,97201.51
2017-12-21T06:25:41.669Z,97209.89
2017-12-21T06:28:09.228Z,97214.89
2017-12-21T06:30:36.692Z,97213.23
2017-12-21T06:33:04.168Z,97209.02
2017-12-21T06:35:31.632Z,97209.03
2017-12-21T06:37:59.121Z,97198.78
2017-12-21T06:40:26.584Z,97203.24
2017-12-21T06:42:54.065Z,97201.66
2017-12-21T06:45:21.532Z,97208.00
2017-12-21T06:47:49.013Z,97213.02
2017-12-21T06:50:16.485Z,97212.66
2017-12-21T06:52:43.972Z,97210.92
2017-12-21T06:55:11.440Z,97212.95
2017-12-21T06:57:38.925Z,97223.12
2017-12-21T07:00:06.385Z,97221.36
2017-12-21T07:02:33.863Z,97212.85
2017-12-21T07:05:01.360Z,97221.34
2017-12-21T07:07:28.845Z,97230.59
2017-12-21T07:09:56.313Z,97227.07
2017-12-21T07:12:23.792Z,97226.66
2017-12-21T07:14:51.257Z,97239.18
2017-12-21T07:17:18.749Z,97235.53
2017-12-21T07:19:46.212Z,97224.79
2017-12-21T07:22:13.677Z,97233.16
2017-12-21T07:24:41.210Z,97230.32
2017-12-21T07:27:08.709Z,97223.52
2017-12-21T07:29:36.188Z,97217.70
2017-12-21T07:32:03.649Z,97218.91
2017-12-21T07:34:31.132Z,97214.73
2017-12-21T07:36:58.597Z,97212.72
2017-12-21T07:39:26.082Z,97216.45
2017-12-21T07:41:53.545Z,97209.80
2017-12-21T07:44:21.025Z,97210.61
2017-12-21T07:46:48.497Z,97219.34
2017-12-21T07:49:15.990Z,97221.83
2017-12-21T07:51:43.457Z,97220.47
2017-12-21T07:54:10.936Z,97217.49
2017-12-21T07:56:38.397Z,97217.57
2017-12-21T07:59:05.881Z,97218.44
2017-12-21T08:01:33.345Z,97220.16
2017-12-21T08:04:00.825Z,97224.14
2017-12-21T08:06:28.290Z,97220.40
2017-12-21T08:08:55.772Z,97221.18
2017-12-21T08:11:23.237Z,97215.34
2017-12-21T08:13:50.721Z,97217.45
2017-12-21T08:16:18.185Z,97216.12
2017-12-21T08:18:45.665Z,97211.52
2017-12-21T08:21:13.129Z,97223.47
2017-12-21T08:23:40.615Z,97233.91
2017-12-21T08:26:08.085Z,97228.59
2017-12-21T08:28:35.565Z,97219.72
2017-12-21T08:31:03.051Z,97220.17
2017-12-21T08:33:30.533Z,97216.70
2017-12-21T08:35:57.992Z,97203.00
2017-12-21T08:38:25.493Z,97201.69
2017-12-21T08:40:52.960Z,97198.88
2017-12-21T08:43:20.454Z,97208.58
2017-12-21T08:45:47.912Z,97208.05
2017-12-21T08:48:15.385Z,97210.28
2017-12-21T08:50:42.844Z,97213.20
2017-12-21T08:53:10.325Z,97211.95
2017-12-21T08:55:37.793Z,97216.66
2017-12-21T08:58:05.256Z,97215.25
2017-12-21T09:00:32.725Z,97211.46
2017-12-21T09:03:00.184Z,97207.22
2017-12-21T09:05:27.677Z,97212.33
2017-12-21T09:07:55.140Z,97214.61
2017-12-21T09:10:22.689Z,97219.44
2017-12-21T09:12:50.149Z,97223.62
2017-12-21T09:15:17.633Z,97210.14
2017-12-21T09:17:45.104Z,97214.24
2017-12-21T09:20:12.585Z,97207.27
2017-12-21T09:22:40.036Z,97207.76
2017-12-21T09:25:07.513Z,97205.16
2017-12-21T09:27:34.972Z,97195.08
2017-12-21T09:30:02.446Z,97187.16
2017-12-21T09:32:29.908Z,97184.80
2017-12-21T09:34:57.389Z,97186.49
2017-12-21T09:37:24.844Z,97192.19
2017-12-21T09:39:52.317Z,97191.92
2017-12-21T09:42:19.773Z,97196.31
2017-12-21T09:44:47.253Z,97197.77
2017-12-21T09:47:14.704Z,97187.48
2017-12-21T09:49:42.173Z,97196.77
2017-12-21T09:52:09.636Z,97194.45
2017-12-21T09:54:37.109Z,97191.17
2017-12-21T09:57:04.612Z,97189.05
2017-12-21T09:59:32.088Z,97187.64
2017-12-21T10:01:59.551Z,97186.48
2017-12-21T10:04:27.033Z,97190.63
2017-12-21T10:06:54.492Z,97188.39
2017-12-21T10:09:21.960Z,97184.42
2017-12-21T10:11:49.421Z,97184.49
2017-12-21T10:14:16.897Z,97187.27
2017-12-21T10:16:44.356Z,97186.31
2017-12-21T10:19:11.833Z,97181.09
2017-12-21T10:21:39.280Z,97172.25
2017-12-21T10:24:06.828Z,97167.25
2017-12-21T10:26:34.285Z,97167.91
2017-12-21T10:29:01.756Z,97169.22
2017-12-21T10:31:29.212Z,97169.94
2017-12-21T10:33:56.689Z,97165.45
2017-12-21T10:36:24.146Z,97158.28
2017-12-21T10:38:51.665Z,97158.78
2017-12-21T10:41:19.154Z,97150.45
2017-12-21T10:43:46.626Z,97144.57
2017-12-21T10:46:14.080Z,97145.92
2017-12-21T10:48:41.553Z,97145.07
2017-12-21T10:51:09.013Z,97146.34
2017-12-21T10:53:36.480Z,97141.74
2017-12-21T10:56:03.933Z,97133.33
2017-12-21T10:58:31.409Z,97135.15
2017-12-21T11:00:58.860Z,97134.25
2017-12-21T11:03:26.334Z,97130.77
2017-12-21T11:05:53.785Z,97130.91
2017-12-21T11:08:21.264Z,97138.17
2017-12-21T11:10:48.716Z,97131.27
2017-12-21T11:13:16.168Z,97125.25
2017-12-21T11:15:43.649Z,97121.92
2017-12-21T11:18:11.108Z,97120.34
2017-12-21T11:20:38.576Z,97123.60
2017-12-21T11:23:06.033Z,97116.72
2017-12-21T11:25:33.509Z,97107.33
2017-12-21T11:28:00.965Z,97109.44
2017-12-21T11:30:28.441Z,97106.44
2017-12-21T11:32:55.937Z,97108.28
2017-12-21T11:35:23.404Z,97105.13
2017-12-21T11:37:50.856Z,97099.19
2017-12-21T11:40:18.333Z,97093.53
2017-12-21T11:42:45.792Z,97098.63
2017-12-21T11:45:13.265Z,97092.25
2017-12-21T11:47:40.721Z,97089.18
2017-12-21T11:50:08.189Z,97090.44
2017-12-21T11:52:35.645Z,97085.41
2017-12-21T11:55:03.164Z,97088.75
2017-12-21T11:57:30.621Z,97092.42
2017-12-21T11:59:58.578Z,97093.42
2017-12-21T12:02:26.034Z,97098.19
2017-12-21T12:04:53.507Z,97103.31
2017-12-21T12:07:20.965Z,97097.07
2017-12-21T12:09:48.432Z,97098.98
2017-12-21T12:12:15.888Z,97098.80
2017-12-21T12:14:43.365Z,97099.08
2017-12-21T12:17:10.816Z,97097.22
2017-12-21T12:19:38.303Z,97093.69
2017-12-21T12:22:05.761Z,97084.42
2017-12-21T12:24:33.233Z,97081.16
2017-12-21T12:27:00.697Z,97077.13
2017-12-21T12:29:28.173Z,97068.48
2017-12-21T12:31:55.642Z,97065.69
2017-12-21T12:34:23.120Z,97067.90
2017-12-21T12:36:50.638Z,97059.31
2017-12-21T12:39:18.132Z,97064.97
2017-12-21T12:41:45.588Z,97061.53
2017-12-21T12:44:13.041Z,97063.37
2017-12-21T12:46:40.518Z,97060.98
2017-12-21T12:49:07.977Z,97049.57
2017-12-21T12:51:35.460Z,97051.03
2017-12-21T12:54:02.928Z,97048.27
2017-12-21T12:56:30.397Z,97044.39
2017-12-21T12:58:57.869Z,97043.41
2017-12-21T13:01:25.336Z,97045.34
2017-12-21T13:03:52.792Z,97043.80
2017-12-21T13:06:20.332Z,97037.61
2017-12-21T13:08:47.816Z,97042.95
2017-12-21T13:11:15.739Z,97039.11
2017-12-21T13:13:43.215Z,97037.78
2017-12-21T13:16:10.685Z,97039.20
2017-12-21T13:18:38.146Z,97038.39
2017-12-21T13:21:05.628Z,97034.16
2017-12-21T13:23:33.085Z,97034.14
2017-12-21T13:26:00.637Z,97037.98
2017-12-21T13:28:28.089Z,97038.86
2017-12-21T13:30:55.560Z,97034.91
2017-12-21T13:33:23.061Z,97031.51
2017-12-21T13:35:50.540Z,97033.94
2017-12-21T13:38:18.004Z,97031.69
2017-12-21T13:40:45.481Z,97039.08
2017-12-21T13:43:12.941Z,97035.33
2017-12-21T13:45:40.448Z,97050.27
2017-12-21T13:48:07.917Z,97039.33
2017-12-21T13:50:35.395Z,97049.98
2017-12-21T13:53:02.863Z,97056.34
2017-12-21T13:55:30.341Z,97049.08
2017-12-21T13:57:57.793Z,97057.31
2017-12-21T14:00:25.265Z,97055.47
2017-12-21T14:02:52.724Z,97055.29
2017-12-21T14:05:20.196Z,97054.56
2017-12-21T14:07:47.697Z,97051.63
2017-12-21T14:10:15.181Z,97049.94
2017-12-21T14:12:42.637Z,97047.62
2017-12-21T14:15:10.117Z,97042.53
2017-12-21T14:17:37.568Z,97033.77
2017-12-21T14:20:05.049Z,97033.80
2017-12-21T14:22:32.936Z,97028.39
2017-12-21T14:25:00.409Z,97028.82
2017-12-21T14:27:27.878Z,97028.91
2017-12-21T14:29:55.349Z,97026.62
2017-12-21T14:32:22.809Z,97023.52
2017-12-21T14:34:50.280Z,97027.34
2017-12-21T14:37:17.737Z,97032.51
2017-12-21T14:39:45.213Z,97036.59
2017-12-21T14:42:12.673Z,97039.27
2017-12-21T14:47:06.909Z,97038.11
2017-12-21T14:49:34.391Z,97047.42
2017-12-21T14:52:02.336Z,97048.66
2017-12-21T14:54:29.812Z,97039.91
2017-12-21T14:56:57.271Z,97046.19
2017-12-21T14:59:24.798Z,97033.16
2017-12-21T15:01:52.268Z,97032.29
2017-12-21T15:04:19.752Z,97035.19
2017-12-21T15:06:47.208Z,97035.65
2017-12-21T15:09:14.687Z,97029.29
2017-12-21T15:11:42.168Z,97017.02
2017-12-21T15:14:09.629Z,97014.53
2017-12-21T15:16:37.097Z,97024.80
2017-12-21T15:19:04.566Z,97030.19
2017-12-21T15:21:32.040Z,97029.39
2017-12-21T15:23:59.502Z,97026.59
2017-12-21T15:26:26.973Z,97025.39
2017-12-21T15:28:54.437Z,97025.72
2017-12-21T15:31:21.912Z,97030.83
2017-12-21T15:33:49.375Z,97029.16
2017-12-21T15:36:16.908Z,97032.13
2017-12-21T15:38:44.600Z,97033.29
2017-12-21T15:41:12.468Z,97028.78
2017-12-21T15:43:39.953Z,97029.91
2017-12-21T15:46:07.433Z,97024.55
2017-12-21T15:48:34.916Z,97024.14
2017-12-21T15:51:02.395Z,97022.62
2017-12-21T15:53:29.861Z,97022.73
2017-12-21T15:55:57.321Z,97029.83
2017-12-21T15:58:24.825Z,97029.21
2017-12-21T16:00:52.318Z,97026.70
2017-12-21T16:03:19.814Z,97026.23
2017-12-21T16:05:47.285Z,97030.49
2017-12-21T16:08:14.756Z,97032.57
2017-12-21T16:10:42.225Z,97033.78
2017-12-21T16:13:09.704Z,97038.00
2017-12-21T16:15:37.165Z,97027.59
2017-12-21T16:18:04.648Z,97040.16
2017-12-21T16:20:32.114Z,97043.94
2017-12-21T16:22:59.598Z,97048.11
2017-12-21T16:25:27.059Z,97044.37
2017-12-21T16:27:54.544Z,97049.39
2017-12-21T16:30:22.025Z,97047.31
2017-12-21T16:32:49.509Z,97047.19
2017-12-21T16:35:16.976Z,97054.19
2017-12-21T16:37:44.457Z,97056.88
2017-12-21T16:40:11.929Z,97054.75
2017-12-21T16:42:39.410Z,97052.70
2017-12-21T16:45:06.877Z,97056.83
2017-12-21T16:47:34.356Z,97058.02
2017-12-21T16:50:01.827Z,97058.98
2017-12-21T16:52:29.312Z,97057.16
2017-12-21T16:54:56.788Z,97059.24
2017-12-21T16:57:24.277Z,97061.27
2017-12-21T16:59:51.741Z,97061.76
2017-12-21T17:02:19.220Z,97063.33
2017-12-21T17:04:46.684Z,97068.77
2017-12-21T17:07:14.194Z,97071.73
2017-12-21T17:09:41.657Z,97083.87
2017-12-21T17:12:09.127Z,97075.89
2017-12-21T17:14:36.613Z,97077.17
2017-12-21T17:17:04.074Z,97075.41
2017-12-21T17:19:31.555Z,97079.02
2017-12-21T17:21:59.064Z,97081.54
2017-12-21T17:24:26.629Z,97080.82
2017-12-21T17:26:54.100Z,97090.73
2017-12-21T17:29:21.565Z,97083.95
2017-12-21T17:31:49.049Z,97076.51
2017-12-21T17:34:16.517Z,97086.95
2017-12-21T17:36:44.000Z,97085.75
2017-12-21T17:39:11.466Z,97084.88
2017-12-21T17:41:38.949Z,97088.98
2017-12-21T17:44:06.413Z,97094.08
2017-12-21T17:46:33.904Z,97098.57
2017-12-21T17:49:01.369Z,97092.80
2017-12-21T17:51:28.850Z,97095.70
2017-12-21T17:53:56.312Z,97096.57
2017-12-21T17:56:23.792Z,97102.45
2017-12-21T17:58:51.334Z,97103.98
2017-12-21T18:01:18.812Z,97111.14
2017-12-21T18:03:46.273Z,97103.98
2017-12-21T18:06:13.737Z,97111.09
2017-12-21T18:08:41.216Z,97111.81
2017-12-21T18:11:08.685Z,97114.69
2017-12-21T18:13:36.182Z,97121.56
2017-12-21T18:16:03.650Z,97126.98
2017-12-21T18:18:31.146Z,97123.64
2017-12-21T18:20:58.618Z,97121.59
2017-12-21T18:23:26.099Z,97131.05
2017-12-21T18:25:53.561Z,97134.77
2017-12-21T18:28:21.044Z,97132.83
2017-12-21T18:30:48.512Z,97138.60
2017-12-21T18:33:15.995Z,97143.30
2017-12-21T18:35:43.461Z,97146.98
2017-12-21T18:38:10.929Z,97152.56
2017-12-21T18:40:38.429Z,97148.34
2017-12-21T18:43:05.892Z,97145.77
2017-12-21T18:45:33.373Z,97149.55
2017-12-21T18:48:00.841Z,97152.07
2017-12-21T18:50:28.329Z,97150.73
2017-12-21T18:52:55.792Z,97159.16
2017-12-21T18:55:23.282Z,97157.48
2017-12-21T18:57:50.769Z,97164.20
2017-12-21T19:00:18.237Z,97166.27
2017-12-21T19:02:45.720Z,97169.98
2017-12-21T19:05:13.181Z,97175.05
2017-12-21T19:07:40.661Z,97174.66
2017-12-21T19:10:08.149Z,97184.25
2017-12-21T19:12:35.637Z,97188.84
2017-12-21T19:15:03.121Z,97190.98
2017-12-21T19:17:30.605Z,97178.42
2017-12-21T19:19:58.124Z,97169.19
2017-12-21T19:22:25.590Z,97174.20
2017-12-21T19:24:53.068Z,97173.70
2017-12-21T19:27:20.528Z,97178.38
2017-12-21T19:29:48.074Z,97181.77
2017-12-21T19:32:15.540Z,97169.23
2017-12-21T19:34:43.025Z,97167.86
2017-12-21T19:37:10.508Z,97172.16
2017-12-21T19:39:38.004Z,97181.30
2017-12-21T19:42:05.581Z,97175.52
2017-12-21T19:44:33.055Z,97179.30
2017-12-21T19:47:00.536Z,97180.99
2017-12-21T19:49:28.017Z,97184.23
2017-12-21T19:51:55.481Z,97191.70
2017-12-21T19:54:23.022Z,97196.05
2017-12-21T19:56:50.492Z,97200.21
2017-12-21T19:59:17.978Z,97201.86
2017-12-21T20:01:45.450Z,97204.39
2017-12-21T20:04:12.933Z,97207.30
2017-12-21T20:06:40.396Z,97212.28
2017-12-21T20:09:07.857Z,97217.33
2017-12-21T20:11:35.341Z,97212.64
2017-12-21T20:14:02.830Z,97214.00
2017-12-21T20:16:30.313Z,97205.55
2017-12-21T20:18:57.781Z,97211.02
2017-12-21T20:21:25.277Z,97215.16
2017-12-21T20:23:52.741Z,97218.93
2017-12-21T20:26:20.227Z,97219.80
2017-12-21T20:28:47.693Z,97227.34
2017-12-21T20:31:15.185Z,97231.51
2017-12-21T20:33:42.657Z,97235.73
2017-12-21T20:36:10.137Z,97233.66
2017-12-21T20:38:37.625Z,97227.37
2017-12-21T20:41:05.105Z,97234.48
2017-12-21T20:43:32.590Z,97237.38
2017-12-21T20:46:00.138Z,97238.25
2017-12-21T20:48:27.605Z,97249.52
2017-12-21T20:50:55.085Z,97250.37
2017-12-21T20:53:22.548Z,97247.35
2017-12-21T20:55:50.049Z,97242.77
2017-12-21T20:58:17.513Z,97243.22
2017-12-21T21:00:44.993Z,97238.93
2017-12-21T21:03:12.460Z,97233.95
2017-12-21T21:05:39.950Z,97223.97
2017-12-21T21:08:07.420Z,97219.31
2017-12-21T21:10:34.900Z,97221.86
2017-12-21T21:13:02.361Z,97224.10
2017-12-21T21:15:29.842Z,97222.60
2017-12-21T21:17:57.310Z,97215.41
2017-12-21T21:20:24.797Z,97211.82
2017-12-21T21:22:52.261Z,97215.86
2017-12-21T21:25:19.773Z,97207.75
2017-12-21T21:27:47.253Z,97207.70
2017-12-21T21:30:14.725Z,97209.57
2017-12-21T21:32:42.216Z,97212.84
2017-12-21T21:35:09.677Z,97209.83
2017-12-21T21:37:37.157Z,97214.02
2017-12-21T21:40:04.633Z,97217.23
2017-12-21T21:42:32.133Z,97213.52
2017-12-21T21:44:59.601Z,97207.66
2017-12-21T21:47:27.081Z,97216.42
2017-12-21T21:49:54.549Z,97213.34
2017-12-21T21:52:22.042Z,97215.69
2017-12-21T21:54:49.508Z,97208.98
2017-12-21T21:57:16.989Z,97193.77
2017-12-21T21:59:44.454Z,97197.35
2017-12-21T22:02:11.941Z,97205.53
2017-12-21T22:04:39.409Z,97219.34
2017-12-21T22:07:06.893Z,97217.33
2017-12-21T22:09:34.356Z,97222.68
2017-12-21T22:12:01.845Z,97222.34
2017-12-21T22:14:29.321Z,97232.38
2017-12-21T22:16:56.813Z,97228.43
2017-12-21T22:19:24.277Z,97236.03
2017-12-21T22:21:51.757Z,97236.08
2017-12-21T22:24:19.221Z,97237.23
2017-12-21T22:26:46.700Z,97237.23
2017-12-21T22:29:14.195Z,97242.17
2017-12-21T22:31:41.685Z,97238.86
2017-12-21T22:34:09.152Z,97238.20
2017-12-21T22:36:36.645Z,97240.51
2017-12-21T22:39:04.112Z,97231.53
2017-12-21T22:41:31.595Z,97235.78
2017-12-21T22:43:59.065Z,97226.81
2017-12-21T22:46:26.545Z,97234.44
2017-12-21T22:48:54.008Z,97232.35
2017-12-21T22:51:21.492Z,97228.19
2017-12-21T22:53:48.987Z,97224.57
2017-12-21T22:56:16.465Z,97231.36
2017-12-21T22:58:43.927Z,97222.56
2017-12-21T23:01:11.389Z,97224.10
2017-12-21T23:03:38.877Z,97214.12
2017-12-21T23:06:06.343Z,97217.02
2017-12-21T23:08:33.828Z,97212.15
2017-12-21T23:11:01.290Z,97205.64
2017-12-21T23:13:28.781Z,97204.70
2017-12-21T23:15:56.249Z,97203.05
2017-12-21T23:18:23.729Z,97200.93
2017-12-21T23:20:51.247Z,97199.74
2017-12-21T23:23:18.702Z,97194.09
2017-12-21T23:25:46.165Z,97200.23
2017-12-21T23:28:13.647Z,97199.25
2017-12-21T23:30:41.113Z,97203.37
2017-12-21T23:33:08.592Z,97204.56
2017-12-21T23:35:36.061Z,97204.64
2017-12-21T23:38:03.556Z,97210.52
2017-12-21T23:40:31.017Z,97206.75
2017-12-21T23:42:58.504Z,97205.64
2017-12-21T23:45:25.969Z,97206.25
2017-12-21T23:47:53.457Z,97209.52
2017-12-21T23:50:20.934Z,97202.05
2017-12-21T23:52:48.416Z,97198.25
2017-12-21T23:55:15.895Z,97200.38
2017-12-21T23:57:43.385Z,97196.13
